Time;durP1;ratioP1;P1;durP2;ratioP2;P2;SDS_P1;SDS_P2;PMS_P1;PMS_P2;Temp;Humidity;BMP_temperature;BMP_pressure;BME280_temperature;BME280_humidity;BME280_pressure;Samples;Min_cycle;Max_cycle;Signal;HPM_P1;HPM_P2
2023/12/10 00:00:26;;;;;;;1.45;0.80;;;;;;;;;;2091188;28;20080;-60
2023/12/10 00:01:26;;;;;;;1.38;0.63;;;;;;;;;;2090234;28;20061;-59
2023/12/10 00:02:27;;;;;;;1.33;0.57;;;;;;;;;;2090878;28;20079;-59
2023/12/10 00:03:28;;;;;;;0.85;0.50;;;;;;;;;;2089567;28;20075;-60
2023/12/10 00:04:28;;;;;;;0.95;0.55;;;;;;;;;;2090753;28;20065;-59
2023/12/10 00:05:29;;;;;;;0.85;0.50;;;;;;;;;;2090612;28;20080;-59
2023/12/10 00:06:30;;;;;;;0.90;0.38;;;;;;;;;;2090497;28;20069;-60
2023/12/10 00:07:31;;;;;;;2.25;0.60;;;;;;;;;;2090574;28;20068;-60
2023/12/10 00:08:31;;;;;;;0.70;0.40;;;;;;;;;;2090577;28;20132;-59
2023/12/10 00:09:32;;;;;;;0.68;0.60;;;;;;;;;;2090677;28;20037;-59
2023/12/10 00:10:33;;;;;;;0.60;0.52;;;;;;;;;;2090657;28;20084;-59
2023/12/10 00:11:34;;;;;;;1.95;0.70;;;;;;;;;;2089421;28;20052;-59
2023/12/10 00:12:34;;;;;;;1.13;0.60;;;;;;;;;;2090166;28;20101;-59
2023/12/10 00:13:35;;;;;;;0.77;0.50;;;;;;;;;;2090512;28;20045;-58
2023/12/10 00:14:36;;;;;;;0.98;0.60;;;;;;;;;;2090470;28;20044;-57
2023/12/10 00:15:39;;;;;;;1.00;0.70;;;;;;;;;;2091282;28;20083;-59
2023/12/10 00:16:40;;;;;;;1.05;0.70;;;;;;;;;;2090476;28;20473;-58
2023/12/10 00:17:41;;;;;;;1.02;0.45;;;;;;;;;;2090627;28;20065;-58
2023/12/10 00:18:41;;;;;;;2.85;0.80;;;;;;;;;;2090431;28;20116;-59
2023/12/10 00:19:42;;;;;;;3.83;1.00;;;;;;;;;;2090629;28;20033;-59
2023/12/10 00:20:43;;;;;;;1.77;1.10;;;;;;;;;;2090402;28;20083;-59
2023/12/10 00:21:44;;;;;;;2.05;1.10;;;;;;;;;;2090516;28;20090;-58
2023/12/10 00:22:46;;;;;;;2.65;1.55;;;;;;;;;;2090528;28;20040;-58
2023/12/10 00:23:47;;;;;;;2.20;1.20;;;;;;;;;;2090124;28;20064;-59
2023/12/10 00:24:47;;;;;;;2.95;1.75;;;;;;;;;;2090615;28;20029;-58
2023/12/10 00:25:48;;;;;;;3.17;1.55;;;;;;;;;;2090307;28;20397;-58
2023/12/10 00:26:49;;;;;;;2.38;1.48;;;;;;;;;;2089940;28;20484;-58
2023/12/10 00:27:50;;;;;;;3.30;1.75;;;;;;;;;;2090112;28;20037;-58
2023/12/10 00:28:50;;;;;;;2.67;1.88;;;;;;;;;;2090029;28;20024;-58
2023/12/10 00:29:51;;;;;;;4.93;1.55;;;;;;;;;;2090999;28;20072;-58
2023/12/10 00:30:52;;;;;;;3.70;1.92;;;;;;;;;;2090345;28;20393;-57
2023/12/10 00:31:53;;;;;;;2.42;1.33;;;;;;;;;;2090440;28;20041;-59
2023/12/10 00:32:54;;;;;;;3.70;2.00;;;;;;;;;;2090222;28;20519;-59
2023/12/10 00:33:54;;;;;;;2.50;1.42;;;;;;;;;;2090539;28;20100;-59
2023/12/10 00:34:55;;;;;;;4.32;2.60;;;;;;;;;;2090415;28;20036;-58
2023/12/10 00:35:56;;;;;;;4.75;2.08;;;;;;;;;;2090329;28;20045;-59
2023/12/10 00:36:57;;;;;;;2.65;1.45;;;;;;;;;;2090522;28;20100;-59
2023/12/10 00:37:57;;;;;;;9.50;2.28;;;;;;;;;;2090425;28;20108;-59
2023/12/10 00:38:59;;;;;;;3.35;1.88;;;;;;;;;;2090580;28;20068;-59
2023/12/10 00:40:00;;;;;;;2.22;1.45;;;;;;;;;;2090316;28;20025;-59
2023/12/10 00:41:00;;;;;;;3.72;2.10;;;;;;;;;;2090214;28;20044;-59
2023/12/10 00:42:01;;;;;;;3.10;1.98;;;;;;;;;;2090292;28;20064;-59
2023/12/10 00:43:02;;;;;;;1.88;1.17;;;;;;;;;;2090603;28;20108;-59
2023/12/10 00:44:03;;;;;;;2.72;1.67;;;;;;;;;;2090305;28;20064;-60
2023/12/10 00:45:04;;;;;;;3.38;2.00;;;;;;;;;;2090264;28;20040;-59
2023/12/10 00:46:05;;;;;;;3.08;1.50;;;;;;;;;;2090655;28;20044;-60
2023/12/10 00:47:06;;;;;;;2.65;1.55;;;;;;;;;;2090994;28;20446;-59
2023/12/10 00:48:07;;;;;;;3.72;2.03;;;;;;;;;;2090296;28;20389;-59
2023/12/10 00:49:08;;;;;;;2.22;1.30;;;;;;;;;;2090294;28;20491;-59
2023/12/10 00:50:09;;;;;;;3.47;1.30;;;;;;;;;;2090828;28;20049;-59
2023/12/10 00:51:19;;;;;;;3.25;1.50;;;;;;;;;;2090282;28;20064;-59
2023/12/10 00:52:20;;;;;;;1.67;1.25;;;;;;;;;;2090226;28;20041;-59
2023/12/10 00:53:21;;;;;;;2.55;1.60;;;;;;;;;;2090248;28;20044;-59
2023/12/10 00:54:21;;;;;;;2.80;1.70;;;;;;;;;;2090263;28;20049;-59
2023/12/10 00:55:22;;;;;;;4.38;1.58;;;;;;;;;;2090170;28;20064;-59
2023/12/10 00:56:23;;;;;;;2.42;1.35;;;;;;;;;;2090500;28;20072;-58
2023/12/10 00:57:24;;;;;;;1.95;1.05;;;;;;;;;;2089866;28;20076;-59
2023/12/10 00:58:24;;;;;;;2.03;0.82;;;;;;;;;;2089614;28;20060;-59
2023/12/10 00:59:25;;;;;;;2.90;1.25;;;;;;;;;;2090136;28;20385;-59
2023/12/10 01:00:26;;;;;;;2.38;1.20;;;;;;;;;;2089734;28;20048;-59
2023/12/10 01:01:26;;;;;;;2.05;1.35;;;;;;;;;;2089756;28;20088;-59
2023/12/10 01:02:27;;;;;;;4.20;1.70;;;;;;;;;;2090304;28;20047;-59
2023/12/10 01:03:28;;;;;;;3.15;1.98;;;;;;;;;;2089531;28;20029;-59
2023/12/10 01:04:29;;;;;;;2.45;1.70;;;;;;;;;;2090188;28;20088;-58
2023/12/10 01:05:29;;;;;;;2.63;1.35;;;;;;;;;;2090032;28;20076;-58
2023/12/10 01:06:30;;;;;;;5.57;1.73;;;;;;;;;;2089670;28;20033;-58
2023/12/10 01:07:31;;;;;;;3.00;2.00;;;;;;;;;;2090092;28;20159;-58
2023/12/10 01:08:32;;;;;;;2.78;1.73;;;;;;;;;;2089310;28;20436;-58
2023/12/10 01:09:35;;;;;;;2.53;1.65;;;;;;;;;;2089628;28;20037;-59
2023/12/10 01:10:36;;;;;;;3.97;1.55;;;;;;;;;;2090333;28;20458;-58
2023/12/10 01:11:37;;;;;;;2.97;1.35;;;;;;;;;;2090133;28;20049;-58
2023/12/10 01:12:38;;;;;;;1.83;1.10;;;;;;;;;;2089952;28;20079;-57
2023/12/10 01:13:39;;;;;;;1.85;1.10;;;;;;;;;;2090337;28;20045;-58
2023/12/10 01:14:40;;;;;;;1.58;0.85;;;;;;;;;;2090170;28;20537;-57
2023/12/10 01:15:41;;;;;;;2.17;1.23;;;;;;;;;;2090235;28;20468;-57
2023/12/10 01:16:42;;;;;;;2.53;0.70;;;;;;;;;;2090120;28;20056;-57
2023/12/10 01:17:43;;;;;;;2.00;0.75;;;;;;;;;;2090262;28;20063;-57
2023/12/10 01:18:43;;;;;;;1.08;0.65;;;;;;;;;;2090186;28;20053;-58
2023/12/10 01:19:44;;;;;;;2.50;0.68;;;;;;;;;;2090114;28;20401;-59
2023/12/10 01:20:45;;;;;;;1.05;0.45;;;;;;;;;;2090216;28;20075;-59
2023/12/10 01:21:47;;;;;;;3.60;1.10;;;;;;;;;;2090132;28;20079;-58
2023/12/10 01:22:47;;;;;;;1.83;0.50;;;;;;;;;;2090081;28;20041;-58
2023/12/10 01:23:54;;;;;;;0.30;0.30;;;;;;;;;;2090095;28;20393;-57
2023/12/10 01:24:54;;;;;;;1.08;0.45;;;;;;;;;;2090333;28;20032;-58
2023/12/10 01:25:55;;;;;;;1.73;0.60;;;;;;;;;;2090086;28;20507;-58
2023/12/10 01:26:56;;;;;;;1.10;0.40;;;;;;;;;;2090326;28;20488;-58
2023/12/10 01:27:57;;;;;;;2.78;0.50;;;;;;;;;;2090127;28;20061;-58
2023/12/10 01:28:57;;;;;;;0.80;0.40;;;;;;;;;;2090195;28;20041;-57
2023/12/10 01:29:58;;;;;;;2.10;0.50;;;;;;;;;;2089988;28;20033;-58
2023/12/10 01:30:59;;;;;;;1.83;0.57;;;;;;;;;;2090265;28;20072;-58
2023/12/10 01:32:00;;;;;;;1.75;0.50;;;;;;;;;;2089808;28;20045;-58
2023/12/10 01:33:01;;;;;;;1.95;0.50;;;;;;;;;;2090372;28;20068;-58
2023/12/10 01:34:02;;;;;;;1.08;0.60;;;;;;;;;;2090182;28;20061;-57
2023/12/10 01:35:04;;;;;;;0.88;0.35;;;;;;;;;;2090668;28;20037;-59
2023/12/10 01:36:05;;;;;;;3.50;0.65;;;;;;;;;;2090205;28;20055;-58
2023/12/10 01:37:06;;;;;;;6.43;0.75;;;;;;;;;;2090034;28;20056;-59
2023/12/10 01:38:06;;;;;;;2.22;0.50;;;;;;;;;;2089004;28;20075;-59
2023/12/10 01:39:07;;;;;;;1.52;0.50;;;;;;;;;;2089463;28;20040;-58
2023/12/10 01:40:08;;;;;;;0.75;0.52;;;;;;;;;;2090323;28;20045;-58
2023/12/10 01:41:09;;;;;;;2.35;0.55;;;;;;;;;;2090040;28;20503;-58
2023/12/10 01:42:10;;;;;;;2.67;0.30;;;;;;;;;;2089954;28;20040;-58
2023/12/10 01:43:11;;;;;;;5.63;1.20;;;;;;;;;;2090082;28;20069;-58
2023/12/10 01:44:12;;;;;;;8.40;1.10;;;;;;;;;;2090105;28;20041;-58
2023/12/10 01:45:13;;;;;;;3.85;0.70;;;;;;;;;;2090025;28;20100;-58
2023/12/10 01:46:14;;;;;;;5.00;1.00;;;;;;;;;;2090077;28;20040;-58
2023/12/10 01:47:14;;;;;;;2.47;1.00;;;;;;;;;;2090322;28;20045;-57
2023/12/10 01:48:15;;;;;;;2.35;0.55;;;;;;;;;;2090039;28;20493;-57
2023/12/10 01:49:16;;;;;;;6.18;1.33;;;;;;;;;;2089444;28;20579;-58
2023/12/10 01:50:18;;;;;;;2.88;0.65;;;;;;;;;;2089158;28;20080;-57
2023/12/10 01:51:19;;;;;;;2.83;0.70;;;;;;;;;;2089697;28;20052;-57
2023/12/10 01:52:22;;;;;;;5.57;0.85;;;;;;;;;;2089227;28;20041;-57
2023/12/10 01:53:22;;;;;;;3.95;0.50;;;;;;;;;;2089830;28;20520;-58
2023/12/10 01:54:23;;;;;;;3.90;0.85;;;;;;;;;;2090122;28;20048;-57
2023/12/10 01:55:24;;;;;;;2.53;0.60;;;;;;;;;;2088783;28;20429;-57
2023/12/10 01:56:25;;;;;;;3.50;0.93;;;;;;;;;;2089683;28;20080;-57
2023/12/10 01:57:27;;;;;;;4.88;0.93;;;;;;;;;;2080662;28;20037;-57
2023/12/10 01:58:28;;;;;;;5.82;0.45;;;;;;;;;;2073251;28;20093;-57
2023/12/10 01:59:29;;;;;;;4.38;0.75;;;;;;;;;;2089665;28;20192;-57
2023/12/10 02:00:30;;;;;;;5.00;0.85;;;;;;;;;;2090007;28;20065;-57
2023/12/10 02:01:30;;;;;;;3.92;0.70;;;;;;;;;;2089291;28;20440;-58
2023/12/10 02:02:34;;;;;;;3.50;0.88;;;;;;;;;;2089314;28;20083;-57
2023/12/10 02:03:35;;;;;;;1.40;0.60;;;;;;;;;;2088404;28;20481;-57
2023/12/10 02:04:35;;;;;;;7.35;1.60;;;;;;;;;;2088669;28;20041;-57
2023/12/10 02:05:36;;;;;;;5.28;0.60;;;;;;;;;;2089447;28;20045;-58
2023/12/10 02:06:37;;;;;;;5.10;0.88;;;;;;;;;;2089983;28;20095;-57
2023/12/10 02:07:38;;;;;;;5.20;0.95;;;;;;;;;;2090113;28;20045;-57
2023/12/10 02:08:39;;;;;;;4.72;1.02;;;;;;;;;;2090237;28;20037;-57
2023/12/10 02:09:40;;;;;;;5.75;1.20;;;;;;;;;;2089967;28;20106;-57
2023/12/10 02:10:41;;;;;;;2.65;0.65;;;;;;;;;;2090091;28;20084;-57
2023/12/10 02:11:41;;;;;;;4.32;0.88;;;;;;;;;;2090347;28;20072;-57
2023/12/10 02:12:42;;;;;;;4.53;0.82;;;;;;;;;;2089961;28;20044;-57
2023/12/10 02:13:43;;;;;;;2.60;0.75;;;;;;;;;;2088906;28;20072;-57
2023/12/10 02:14:44;;;;;;;5.78;1.50;;;;;;;;;;2090983;28;20084;-58
2023/12/10 02:15:45;;;;;;;4.28;1.02;;;;;;;;;;2098617;28;20040;-57
2023/12/10 02:16:45;;;;;;;4.57;0.70;;;;;;;;;;2107452;28;20063;-58
2023/12/10 02:17:46;;;;;;;6.97;1.40;;;;;;;;;;2091791;28;20033;-57
2023/12/10 02:18:47;;;;;;;5.95;1.20;;;;;;;;;;2091258;28;20509;-57
2023/12/10 02:19:48;;;;;;;4.47;0.80;;;;;;;;;;2091343;28;20080;-57
2023/12/10 02:20:49;;;;;;;4.75;0.93;;;;;;;;;;2091366;28;20072;-56
2023/12/10 02:21:50;;;;;;;3.17;0.80;;;;;;;;;;2091445;28;20098;-57
2023/12/10 02:23:09;;;;;;;3.63;0.82;;;;;;;;;;2090186;28;20095;-57
2023/12/10 02:24:10;;;;;;;6.43;1.40;;;;;;;;;;2091266;28;20461;-57
2023/12/10 02:25:11;;;;;;;4.28;0.90;;;;;;;;;;2090458;28;20040;-57
2023/12/10 02:26:12;;;;;;;8.05;1.80;;;;;;;;;;2090731;28;20063;-57
2023/12/10 02:27:12;;;;;;;7.00;0.90;;;;;;;;;;2091419;28;20068;-57
2023/12/10 02:28:16;;;;;;;7.20;1.80;;;;;;;;;;2090757;28;20079;-57
2023/12/10 02:29:17;;;;;;;8.57;1.05;;;;;;;;;;2090703;28;20496;-58
2023/12/10 02:30:18;;;;;;;9.98;1.48;;;;;;;;;;2090852;28;20033;-57
2023/12/10 02:31:19;;;;;;;2.63;0.90;;;;;;;;;;2091273;28;20041;-58
2023/12/10 02:32:19;;;;;;;7.28;1.25;;;;;;;;;;2091571;28;20048;-57
2023/12/10 02:33:20;;;;;;;8.32;1.25;;;;;;;;;;2091973;28;20084;-61
2023/12/10 02:34:21;;;;;;;5.25;0.85;;;;;;;;;;2091286;28;20087;-57
2023/12/10 02:35:22;;;;;;;6.32;1.20;;;;;;;;;;2091368;28;20041;-57
2023/12/10 02:36:23;;;;;;;4.50;1.27;;;;;;;;;;2091044;28;20401;-56
2023/12/10 02:37:24;;;;;;;2.95;0.85;;;;;;;;;;2091096;28;20051;-57
2023/12/10 02:38:24;;;;;;;6.28;0.95;;;;;;;;;;2090570;28;20101;-58
2023/12/10 02:39:25;;;;;;;5.45;1.60;;;;;;;;;;2091274;28;20527;-57
2023/12/10 02:40:26;;;;;;;9.88;1.83;;;;;;;;;;2091815;28;20159;-57
2023/12/10 02:41:27;;;;;;;7.00;1.17;;;;;;;;;;2091310;28;20497;-57
2023/12/10 02:42:27;;;;;;;10.18;1.13;;;;;;;;;;2091324;28;20041;-57
2023/12/10 02:43:28;;;;;;;7.32;1.02;;;;;;;;;;2091172;28;20087;-57
2023/12/10 02:44:29;;;;;;;5.97;1.20;;;;;;;;;;2091116;28;20047;-57
2023/12/10 02:45:29;;;;;;;6.50;1.35;;;;;;;;;;2091327;28;20045;-57
2023/12/10 02:46:30;;;;;;;7.68;1.40;;;;;;;;;;2091145;28;20033;-57
2023/12/10 02:47:31;;;;;;;4.85;1.10;;;;;;;;;;2091182;28;20615;-57
2023/12/10 02:48:32;;;;;;;8.02;1.38;;;;;;;;;;2091366;28;20382;-59
2023/12/10 02:49:33;;;;;;;6.47;1.17;;;;;;;;;;2091328;28;20094;-57
2023/12/10 02:50:33;;;;;;;9.70;1.13;;;;;;;;;;2091137;28;20072;-57
2023/12/10 02:51:34;;;;;;;7.63;1.00;;;;;;;;;;2091315;28;20033;-57
2023/12/10 02:52:36;;;;;;;8.52;2.17;;;;;;;;;;2091439;28;20079;-57
2023/12/10 02:53:37;;;;;;;7.18;1.27;;;;;;;;;;2091198;28;20037;-57
2023/12/10 02:54:37;;;;;;;12.48;2.20;;;;;;;;;;2090858;28;20069;-57
2023/12/10 02:55:38;;;;;;;3.72;1.05;;;;;;;;;;2090863;28;20072;-57
2023/12/10 02:56:39;;;;;;;5.25;1.33;;;;;;;;;;2090664;28;20052;-57
2023/12/10 02:57:39;;;;;;;4.50;0.88;;;;;;;;;;2090894;28;20374;-57
2023/12/10 02:58:40;;;;;;;7.88;1.35;;;;;;;;;;2090622;28;20497;-57
2023/12/10 02:59:41;;;;;;;3.92;0.85;;;;;;;;;;2090747;28;20028;-57
2023/12/10 03:00:42;;;;;;;1.60;0.60;;;;;;;;;;2090835;28;20044;-57
2023/12/10 03:01:43;;;;;;;6.03;1.00;;;;;;;;;;2090512;28;20504;-57
2023/12/10 03:02:44;;;;;;;4.90;1.40;;;;;;;;;;2090744;28;20056;-57
2023/12/10 03:03:45;;;;;;;6.85;1.10;;;;;;;;;;2090110;28;20466;-57
2023/12/10 03:04:46;;;;;;;7.10;1.45;;;;;;;;;;2091216;28;20389;-57
2023/12/10 03:05:46;;;;;;;6.85;1.02;;;;;;;;;;2091216;28;20117;-57
2023/12/10 03:06:47;;;;;;;5.63;0.70;;;;;;;;;;2091038;28;20477;-56
2023/12/10 03:07:48;;;;;;;5.25;1.23;;;;;;;;;;2091049;28;20084;-56
2023/12/10 03:08:48;;;;;;;4.05;1.05;;;;;;;;;;2091014;28;20029;-57
2023/12/10 03:09:49;;;;;;;12.18;2.60;;;;;;;;;;2091070;28;20033;-57
2023/12/10 03:10:50;;;;;;;8.95;1.00;;;;;;;;;;2091285;28;20447;-57
2023/12/10 03:11:51;;;;;;;7.45;1.30;;;;;;;;;;2091323;28;20036;-57
2023/12/10 03:12:51;;;;;;;6.35;1.35;;;;;;;;;;2091271;28;20456;-57
2023/12/10 03:13:52;;;;;;;11.98;1.65;;;;;;;;;;2090964;28;20497;-56
2023/12/10 03:14:53;;;;;;;8.02;1.10;;;;;;;;;;2091179;28;20512;-57
2023/12/10 03:15:53;;;;;;;4.68;0.90;;;;;;;;;;2091164;28;20071;-57
2023/12/10 03:16:54;;;;;;;7.38;1.17;;;;;;;;;;2091266;28;20041;-57
2023/12/10 03:17:55;;;;;;;14.95;1.10;;;;;;;;;;2090946;28;20049;-57
2023/12/10 03:18:56;;;;;;;6.93;1.25;;;;;;;;;;2090864;28;20079;-57
2023/12/10 03:19:56;;;;;;;4.60;1.48;;;;;;;;;;2090945;28;20067;-57
2023/12/10 03:20:57;;;;;;;2.67;1.20;;;;;;;;;;2091016;28;20076;-56
2023/12/10 03:21:58;;;;;;;4.68;1.48;;;;;;;;;;2091363;28;20072;-56
2023/12/10 03:22:59;;;;;;;8.38;1.20;;;;;;;;;;2090908;28;20041;-56
2023/12/10 03:24:00;;;;;;;6.15;1.15;;;;;;;;;;2090674;28;20033;-56
2023/12/10 03:25:01;;;;;;;6.28;1.45;;;;;;;;;;2090915;28;20069;-56
2023/12/10 03:26:02;;;;;;;2.80;0.73;;;;;;;;;;2090846;28;20120;-56
2023/12/10 03:27:02;;;;;;;2.65;0.77;;;;;;;;;;2090933;28;20057;-56
2023/12/10 03:28:04;;;;;;;8.68;1.27;;;;;;;;;;2091136;28;20024;-57
2023/12/10 03:29:04;;;;;;;8.13;1.20;;;;;;;;;;2090996;28;20037;-57
2023/12/10 03:30:05;;;;;;;7.85;1.23;;;;;;;;;;2090750;28;20453;-56
2023/12/10 03:31:06;;;;;;;4.80;1.00;;;;;;;;;;2091137;28;20072;-56
2023/12/10 03:32:07;;;;;;;5.22;0.90;;;;;;;;;;2090783;28;20044;-57
2023/12/10 03:33:08;;;;;;;5.78;1.05;;;;;;;;;;2090799;28;20033;-56
2023/12/10 03:34:08;;;;;;;3.28;1.00;;;;;;;;;;2090788;28;20076;-56
2023/12/10 03:35:09;;;;;;;6.97;1.35;;;;;;;;;;2090843;28;20079;-57
2023/12/10 03:36:10;;;;;;;7.30;1.45;;;;;;;;;;2090840;28;20075;-56
2023/12/10 03:37:11;;;;;;;6.90;1.10;;;;;;;;;;2090765;28;20073;-56
2023/12/10 03:38:11;;;;;;;5.68;1.17;;;;;;;;;;2090902;28;20099;-56
2023/12/10 03:39:12;;;;;;;2.75;1.02;;;;;;;;;;2090768;28;20037;-56
2023/12/10 03:40:13;;;;;;;3.63;0.93;;;;;;;;;;2090746;28;20047;-56
2023/12/10 03:41:13;;;;;;;3.97;0.90;;;;;;;;;;2090767;28;20417;-56
2023/12/10 03:42:14;;;;;;;8.70;1.63;;;;;;;;;;2090627;28;20484;-57
2023/12/10 03:43:15;;;;;;;3.80;0.85;;;;;;;;;;2090750;28;20033;-56
2023/12/10 03:44:16;;;;;;;5.57;1.15;;;;;;;;;;2090738;28;20079;-57
2023/12/10 03:45:16;;;;;;;8.60;1.48;;;;;;;;;;2090731;28;20044;-57
2023/12/10 03:46:17;;;;;;;4.53;1.13;;;;;;;;;;2090665;28;20076;-56
2023/12/10 03:47:18;;;;;;;6.18;0.95;;;;;;;;;;2090987;28;20056;-57
2023/12/10 03:48:18;;;;;;;2.40;0.65;;;;;;;;;;2090998;28;20480;-56
2023/12/10 03:49:19;;;;;;;5.38;0.82;;;;;;;;;;2090735;28;20396;-56
2023/12/10 03:50:20;;;;;;;8.18;1.10;;;;;;;;;;2090696;28;20045;-56
2023/12/10 03:51:21;;;;;;;2.15;0.82;;;;;;;;;;2090651;28;20061;-56
2023/12/10 03:52:21;;;;;;;3.10;0.63;;;;;;;;;;2090797;28;20120;-57
2023/12/10 03:53:22;;;;;;;6.18;1.27;;;;;;;;;;2090778;28;20065;-56
2023/12/10 03:54:23;;;;;;;2.67;0.50;;;;;;;;;;2090786;28;20041;-56
2023/12/10 03:55:24;;;;;;;4.35;1.00;;;;;;;;;;2090614;28;20106;-56
2023/12/10 03:56:24;;;;;;;5.10;1.00;;;;;;;;;;2091257;28;20088;-57
2023/12/10 03:57:25;;;;;;;7.97;1.30;;;;;;;;;;2090629;28;20049;-56
2023/12/10 03:58:26;;;;;;;7.93;1.23;;;;;;;;;;2090688;28;20064;-57
2023/12/10 03:59:27;;;;;;;2.67;0.57;;;;;;;;;;2091183;28;20079;-56
2023/12/10 04:00:28;;;;;;;4.90;1.52;;;;;;;;;;2090390;28;20029;-56
2023/12/10 04:01:29;;;;;;;6.35;1.02;;;;;;;;;;2090443;28;20045;-57
2023/12/10 04:02:30;;;;;;;4.80;0.90;;;;;;;;;;2090497;28;20175;-57
2023/12/10 04:03:31;;;;;;;3.92;0.90;;;;;;;;;;2090551;28;20082;-57
2023/12/10 04:04:31;;;;;;;6.72;1.20;;;;;;;;;;2090150;28;20065;-57
2023/12/10 04:05:32;;;;;;;7.50;1.55;;;;;;;;;;2090542;28;20073;-57
2023/12/10 04:06:37;;;;;;;5.35;1.63;;;;;;;;;;2090985;28;20072;-57
2023/12/10 04:07:38;;;;;;;5.78;1.50;;;;;;;;;;2081812;28;20060;-56
2023/12/10 04:08:39;;;;;;;4.78;1.17;;;;;;;;;;2081863;28;20044;-56
2023/12/10 04:09:40;;;;;;;5.32;1.15;;;;;;;;;;2090478;28;20504;-57
2023/12/10 04:10:41;;;;;;;4.97;0.98;;;;;;;;;;2090238;28;20064;-56
2023/12/10 04:11:41;;;;;;;6.85;1.42;;;;;;;;;;2090136;28;20037;-56
2023/12/10 04:12:42;;;;;;;3.95;0.82;;;;;;;;;;2090675;28;20461;-56
2023/12/10 04:13:43;;;;;;;7.53;1.45;;;;;;;;;;2090788;28;20068;-57
2023/12/10 04:14:49;;;;;;;6.00;1.25;;;;;;;;;;2090463;28;20044;-57
2023/12/10 04:15:50;;;;;;;3.17;0.90;;;;;;;;;;2090431;28;20033;-56
2023/12/10 04:16:51;;;;;;;9.32;1.30;;;;;;;;;;2090443;28;20485;-56
2023/12/10 04:17:52;;;;;;;3.70;1.00;;;;;;;;;;2090464;28;20537;-56
2023/12/10 04:18:52;;;;;;;8.73;1.77;;;;;;;;;;2090912;28;20446;-56
2023/12/10 04:19:53;;;;;;;3.38;0.82;;;;;;;;;;2090555;28;20442;-56
2023/12/10 04:20:54;;;;;;;3.58;0.90;;;;;;;;;;2090451;28;20508;-56
2023/12/10 04:21:54;;;;;;;7.03;1.15;;;;;;;;;;2090427;28;20065;-56
2023/12/10 04:22:56;;;;;;;7.82;1.00;;;;;;;;;;2090097;28;20128;-56
2023/12/10 04:23:56;;;;;;;3.97;0.93;;;;;;;;;;2090496;28;20043;-57
2023/12/10 04:24:57;;;;;;;11.07;2.22;;;;;;;;;;2090413;28;20090;-56
2023/12/10 04:25:58;;;;;;;6.50;0.60;;;;;;;;;;2090391;28;20037;-56
2023/12/10 04:26:59;;;;;;;7.93;1.40;;;;;;;;;;2090706;28;20040;-56
2023/12/10 04:27:59;;;;;;;5.30;1.15;;;;;;;;;;2090297;28;20057;-57
2023/12/10 04:29:00;;;;;;;12.73;1.52;;;;;;;;;;2090420;28;20077;-56
2023/12/10 04:30:01;;;;;;;4.82;1.20;;;;;;;;;;2090150;28;20079;-56
2023/12/10 04:31:02;;;;;;;5.20;0.88;;;;;;;;;;2090410;28;20120;-56
2023/12/10 04:32:02;;;;;;;8.52;1.42;;;;;;;;;;2090402;28;20036;-56
2023/12/10 04:33:04;;;;;;;11.05;1.25;;;;;;;;;;2090618;28;20036;-56
2023/12/10 04:34:04;;;;;;;4.97;1.50;;;;;;;;;;2090462;28;20049;-56
2023/12/10 04:35:05;;;;;;;2.88;0.85;;;;;;;;;;2090362;28;20049;-56
2023/12/10 04:36:06;;;;;;;7.85;1.50;;;;;;;;;;2090307;28;20170;-56
2023/12/10 04:37:07;;;;;;;5.82;0.77;;;;;;;;;;2090046;28;20037;-56
2023/12/10 04:38:08;;;;;;;4.15;1.25;;;;;;;;;;2090141;28;20079;-56
2023/12/10 04:39:09;;;;;;;8.63;0.98;;;;;;;;;;2090148;28;20480;-56
2023/12/10 04:40:10;;;;;;;6.82;1.48;;;;;;;;;;2090471;28;20047;-57
2023/12/10 04:41:11;;;;;;;5.20;1.42;;;;;;;;;;2090299;28;20037;-56
2023/12/10 04:42:12;;;;;;;3.42;0.43;;;;;;;;;;2090913;28;20036;-57
2023/12/10 04:43:13;;;;;;;7.00;1.05;;;;;;;;;;2090405;28;20045;-56
2023/12/10 04:44:13;;;;;;;5.20;1.27;;;;;;;;;;2090465;28;20068;-56
2023/12/10 04:45:14;;;;;;;8.32;1.75;;;;;;;;;;2090277;28;20060;-57
2023/12/10 04:46:16;;;;;;;10.52;1.90;;;;;;;;;;2090323;28;20040;-57
2023/12/10 04:47:17;;;;;;;6.32;1.63;;;;;;;;;;2090271;28;20529;-57
2023/12/10 04:48:18;;;;;;;7.57;1.30;;;;;;;;;;2090247;28;20044;-57
2023/12/10 04:49:19;;;;;;;6.38;1.55;;;;;;;;;;2090244;28;20393;-56
2023/12/10 04:50:19;;;;;;;7.53;1.75;;;;;;;;;;2090229;28;20090;-57
2023/12/10 04:51:20;;;;;;;11.55;1.30;;;;;;;;;;2090263;28;20451;-57
2023/12/10 04:52:21;;;;;;;8.18;1.42;;;;;;;;;;2090766;28;20037;-56
2023/12/10 04:53:22;;;;;;;5.90;1.10;;;;;;;;;;2090241;28;20512;-57
2023/12/10 04:54:23;;;;;;;4.97;1.13;;;;;;;;;;2090112;28;20454;-57
2023/12/10 04:55:23;;;;;;;8.07;1.40;;;;;;;;;;2090216;28;20517;-57
2023/12/10 04:56:24;;;;;;;6.53;1.15;;;;;;;;;;2090236;28;20507;-57
2023/12/10 04:57:25;;;;;;;5.38;1.17;;;;;;;;;;2090304;28;20496;-57
2023/12/10 04:58:26;;;;;;;9.48;1.48;;;;;;;;;;2090825;28;20447;-63
2023/12/10 04:59:26;;;;;;;8.43;1.50;;;;;;;;;;2090188;28;20037;-57
2023/12/10 05:00:27;;;;;;;10.75;2.47;;;;;;;;;;2089714;28;20124;-56
2023/12/10 05:01:28;;;;;;;7.28;1.15;;;;;;;;;;2089911;28;20045;-57
2023/12/10 05:02:29;;;;;;;5.10;1.10;;;;;;;;;;2090266;28;20076;-56
2023/12/10 05:03:29;;;;;;;5.95;1.15;;;;;;;;;;2090110;28;20461;-57
2023/12/10 05:04:30;;;;;;;12.18;1.40;;;;;;;;;;2089648;28;20473;-57
2023/12/10 05:05:31;;;;;;;8.70;1.60;;;;;;;;;;2090421;28;20068;-57
2023/12/10 05:06:32;;;;;;;9.40;1.48;;;;;;;;;;2090307;28;20041;-57
2023/12/10 05:07:33;;;;;;;6.72;1.40;;;;;;;;;;2090351;28;20068;-57
2023/12/10 05:08:34;;;;;;;8.27;1.13;;;;;;;;;;2090275;28;20068;-57
2023/12/10 05:09:35;;;;;;;7.65;1.00;;;;;;;;;;2090178;28;20120;-57
2023/12/10 05:10:36;;;;;;;7.72;1.58;;;;;;;;;;2089096;28;20049;-57
2023/12/10 05:11:37;;;;;;;6.72;1.35;;;;;;;;;;2089940;28;20392;-56
2023/12/10 05:12:37;;;;;;;7.63;1.38;;;;;;;;;;2090637;28;20048;-57
2023/12/10 05:13:38;;;;;;;5.88;1.05;;;;;;;;;;2090233;28;20448;-57
2023/12/10 05:14:39;;;;;;;5.70;1.17;;;;;;;;;;2090231;28;20511;-57
2023/12/10 05:15:39;;;;;;;6.85;1.30;;;;;;;;;;2089876;28;20044;-57
2023/12/10 05:16:40;;;;;;;13.23;2.03;;;;;;;;;;2090343;28;20511;-57
2023/12/10 05:17:41;;;;;;;9.32;1.75;;;;;;;;;;2090242;28;20535;-57
2023/12/10 05:18:42;;;;;;;6.20;1.20;;;;;;;;;;2090154;28;20090;-57
2023/12/10 05:19:42;;;;;;;15.77;1.85;;;;;;;;;;2090136;28;20080;-57
2023/12/10 05:20:43;;;;;;;6.68;1.40;;;;;;;;;;2090430;28;20036;-57
2023/12/10 05:21:44;;;;;;;7.95;1.88;;;;;;;;;;2090260;28;20471;-57
2023/12/10 05:22:45;;;;;;;12.80;2.13;;;;;;;;;;2090206;28;20535;-59
2023/12/10 05:23:45;;;;;;;8.57;1.50;;;;;;;;;;2089994;28;20511;-56
2023/12/10 05:24:46;;;;;;;5.30;1.20;;;;;;;;;;2089812;28;20079;-57
2023/12/10 05:25:47;;;;;;;10.70;1.80;;;;;;;;;;2089926;28;20033;-57
2023/12/10 05:26:48;;;;;;;13.20;2.13;;;;;;;;;;2090549;28;20073;-56
2023/12/10 05:27:49;;;;;;;13.75;2.55;;;;;;;;;;2090130;28;20069;-56
2023/12/10 05:28:49;;;;;;;16.20;2.13;;;;;;;;;;2090697;28;20076;-57
2023/12/10 05:29:50;;;;;;;13.02;1.80;;;;;;;;;;2090072;28;20025;-56
2023/12/10 05:30:51;;;;;;;9.38;1.27;;;;;;;;;;2090039;28;20025;-57
2023/12/10 05:31:51;;;;;;;17.48;1.75;;;;;;;;;;2089169;28;20523;-57
2023/12/10 05:32:52;;;;;;;14.52;2.00;;;;;;;;;;2088934;28;20583;-56
2023/12/10 05:33:53;;;;;;;7.47;1.42;;;;;;;;;;2090186;28;20029;-56
2023/12/10 05:34:54;;;;;;;9.18;1.50;;;;;;;;;;2090124;28;20075;-56
2023/12/10 05:35:54;;;;;;;10.75;1.77;;;;;;;;;;2090113;28;20089;-56
2023/12/10 05:36:55;;;;;;;14.52;2.10;;;;;;;;;;2090048;28;20120;-56
2023/12/10 05:37:56;;;;;;;11.48;2.20;;;;;;;;;;2090038;28;20040;-56
2023/12/10 05:38:57;;;;;;;9.35;1.20;;;;;;;;;;2090046;28;20104;-57
2023/12/10 05:39:57;;;;;;;6.10;1.17;;;;;;;;;;2089978;28;20068;-56
2023/12/10 05:40:58;;;;;;;13.98;1.70;;;;;;;;;;2090147;28;20037;-56
2023/12/10 05:41:59;;;;;;;16.98;1.77;;;;;;;;;;2090132;28;20069;-56
2023/12/10 05:43:00;;;;;;;7.55;1.42;;;;;;;;;;2090052;28;20033;-56
2023/12/10 05:44:00;;;;;;;12.65;2.13;;;;;;;;;;2090054;28;20060;-57
2023/12/10 05:45:02;;;;;;;12.77;2.38;;;;;;;;;;2090041;28;20067;-56
2023/12/10 05:46:03;;;;;;;12.27;1.83;;;;;;;;;;2090048;28;20044;-56
2023/12/10 05:47:04;;;;;;;6.97;2.00;;;;;;;;;;2090388;28;20036;-56
2023/12/10 05:48:04;;;;;;;10.82;1.95;;;;;;;;;;2090072;28;20068;-56
2023/12/10 05:49:05;;;;;;;10.38;1.63;;;;;;;;;;2090193;28;20049;-56
2023/12/10 05:50:06;;;;;;;6.10;1.83;;;;;;;;;;2091637;28;20029;-57
2023/12/10 05:51:07;;;;;;;13.85;2.05;;;;;;;;;;2091325;28;20087;-56
2023/12/10 05:52:07;;;;;;;13.45;1.63;;;;;;;;;;2091813;28;20457;-56
2023/12/10 05:53:08;;;;;;;14.85;3.17;;;;;;;;;;2091576;28;20064;-57
2023/12/10 05:54:09;;;;;;;13.85;2.92;;;;;;;;;;2091958;28;20056;-56
2023/12/10 05:55:10;;;;;;;11.43;2.15;;;;;;;;;;2091558;28;20060;-56
2023/12/10 05:56:10;;;;;;;4.90;1.38;;;;;;;;;;2091619;28;20041;-57
2023/12/10 05:57:11;;;;;;;11.45;1.90;;;;;;;;;;2091604;28;20072;-57
2023/12/10 05:58:12;;;;;;;7.63;2.25;;;;;;;;;;2091578;28;20073;-57
2023/12/10 05:59:14;;;;;;;9.65;1.88;;;;;;;;;;2091690;28;20044;-57
2023/12/10 06:00:16;;;;;;;10.68;1.95;;;;;;;;;;2091511;28;20037;-56
2023/12/10 06:01:17;;;;;;;13.45;2.03;;;;;;;;;;2091445;28;20037;-57
2023/12/10 06:02:18;;;;;;;9.13;1.92;;;;;;;;;;2091680;28;20072;-56
2023/12/10 06:03:18;;;;;;;12.13;2.42;;;;;;;;;;2091446;28;20033;-58
2023/12/10 06:04:19;;;;;;;11.27;2.40;;;;;;;;;;2090969;28;20079;-56